Time;durP1;ratioP1;P1;durP2;ratioP2;P2;SDS_P1;SDS_P2;PMS_P1;PMS_P2;Temp;Humidity;BMP_temperature;BMP_pressure;BME280_temperature;BME280_humidity;BME280_pressure;Samples;Min_cycle;Max_cycle;Signal;HPM_P1;HPM_P2
2022/10/21 00:01:19;;;;;;;15.02;9.25;;;12.20;99.90;;;;;;4932292;28;20046;-31
2022/10/21 00:03:45;;;;;;;16.70;9.90;;;12.10;99.90;;;;;;4931404;29;20028;-32
2022/10/21 00:06:10;;;;;;;13.70;8.82;;;12.20;99.90;;;;;;4929828;29;20470;-29
2022/10/21 00:08:37;;;;;;;15.18;9.10;;;12.20;99.90;;;;;;4931575;29;20031;-30
2022/10/21 00:11:05;;;;;;;15.98;9.20;;;12.20;99.90;;;;;;4929863;29;20155;-30
2022/10/21 00:13:32;;;;;;;14.50;8.43;;;12.20;99.90;;;;;;4931940;29;20485;-30
2022/10/21 00:16:07;;;;;;;17.43;9.63;;;12.20;99.90;;;;;;4942948;28;20388;-29
2022/10/21 00:18:35;;;;;;;13.48;8.65;;;12.20;99.90;;;;;;4946872;28;20034;-30
2022/10/21 00:21:04;;;;;;;16.07;8.87;;;12.20;99.90;;;;;;4931135;29;20291;-30
2022/10/21 00:23:30;;;;;;;27.10;12.77;;;12.20;99.90;;;;;;4929480;29;20354;-31
2022/10/21 00:25:57;;;;;;;17.65;10.55;;;12.20;99.90;;;;;;4931819;29;20106;-30
2022/10/21 00:28:23;;;;;;;17.13;9.82;;;12.20;99.90;;;;;;4930284;29;20079;-30
2022/10/21 00:30:48;;;;;;;16.55;9.13;;;12.20;99.90;;;;;;4931114;28;20110;-31
2022/10/21 00:33:14;;;;;;;140.35;49.50;;;12.20;99.90;;;;;;4929883;29;20023;-30
2022/10/21 00:35:40;;;;;;;53.80;24.23;;;12.20;99.90;;;;;;4927098;29;20028;-30
2022/10/21 00:38:06;;;;;;;213.38;67.95;;;12.20;99.90;;;;;;4929043;29;20039;-30
2022/10/21 00:40:32;;;;;;;60.13;25.35;;;12.10;99.90;;;;;;4931146;29;20496;-30
2022/10/21 00:42:58;;;;;;;73.57;31.13;;;12.10;99.90;;;;;;4930349;29;20040;-31
2022/10/21 00:45:28;;;;;;;70.63;27.65;;;12.10;99.90;;;;;;4943523;28;20032;-30
2022/10/21 00:48:34;;;;;;;32.50;15.80;;;12.20;99.90;;;;;;4929400;29;20452;-30
2022/10/21 00:51:05;;;;;;;26.00;12.55;;;12.10;99.90;;;;;;4937101;29;20036;-30
2022/10/21 00:53:32;;;;;;;23.42;11.88;;;12.00;99.90;;;;;;4930700;29;20024;-32
2022/10/21 00:56:04;;;;;;;17.38;9.07;;;12.10;99.90;;;;;;4932373;29;20028;-30
2022/10/21 00:58:31;;;;;;;14.57;8.50;;;12.10;99.90;;;;;;4933141;28;20031;-30
2022/10/21 01:00:59;;;;;;;15.75;9.30;;;12.10;99.90;;;;;;4932079;28;20327;-30
2022/10/21 01:03:28;;;;;;;12.07;9.05;;;12.10;99.90;;;;;;4930107;29;20047;-30
2022/10/21 01:05:56;;;;;;;19.17;8.25;;;12.00;99.90;;;;;;4931949;29;20036;-31
2022/10/21 01:08:22;;;;;;;13.40;8.85;;;12.00;99.90;;;;;;4927478;29;20034;-31
2022/10/21 01:10:48;;;;;;;13.43;8.13;;;12.00;99.90;;;;;;4930737;29;20062;-33
2022/10/21 01:13:35;;;;;;;17.15;8.55;;;12.00;99.90;;;;;;4930418;29;20063;-32
2022/10/21 01:16:19;;;;;;;12.77;8.73;;;12.00;99.90;;;;;;4926389;29;20408;-31
2022/10/21 01:18:55;;;;;;;11.85;8.75;;;12.00;99.90;;;;;;4928758;29;20043;-31
2022/10/21 01:21:36;;;;;;;16.05;8.55;;;12.00;99.90;;;;;;4931377;29;20492;-32
2022/10/21 01:24:20;;;;;;;13.88;8.60;;;12.00;99.90;;;;;;4930258;29;20027;-32
2022/10/21 01:27:11;;;;;;;15.73;8.80;;;12.00;99.90;;;;;;4927915;29;20036;-31
2022/10/21 01:29:55;;;;;;;13.32;8.90;;;11.90;99.90;;;;;;4929363;29;20036;-33
2022/10/21 01:32:55;;;;;;;13.35;7.95;;;11.90;99.90;;;;;;4926901;28;20151;-31
2022/10/21 01:35:30;;;;;;;13.90;8.02;;;11.80;99.90;;;;;;4927496;29;20024;-31
2022/10/21 01:38:22;;;;;;;13.40;8.27;;;11.80;99.90;;;;;;4930010;29;20079;-31
2022/10/21 01:40:55;;;;;;;16.83;8.55;;;11.90;99.90;;;;;;4925513;29;20050;-32
2022/10/21 01:43:29;;;;;;;12.95;8.82;;;11.90;99.90;;;;;;4933600;29;20042;-31
2022/10/21 01:46:12;;;;;;;17.08;9.60;;;11.80;99.90;;;;;;4932514;29;20031;-33
2022/10/21 01:48:44;;;;;;;15.05;8.80;;;11.80;99.90;;;;;;4931435;29;20070;-33
2022/10/21 01:51:12;;;;;;;15.07;9.27;;;11.80;99.90;;;;;;4932962;29;20038;-34
2022/10/21 01:54:03;;;;;;;15.00;9.00;;;11.90;99.90;;;;;;4929566;29;20019;-32
2022/10/21 01:56:30;;;;;;;14.35;9.13;;;11.90;99.90;;;;;;4931649;29;20393;-31
2022/10/21 01:58:57;;;;;;;14.35;9.57;;;11.90;99.90;;;;;;4929968;29;20039;-30
2022/10/21 02:01:23;;;;;;;43.03;18.52;;;11.80;99.90;;;;;;4931379;28;20065;-30
2022/10/21 02:03:55;;;;;;;31.48;14.50;;;11.80;99.90;;;;;;4930818;29;20035;-30
2022/10/21 02:06:21;;;;;;;26.67;12.95;;;11.70;99.90;;;;;;4931263;29;20536;-30
2022/10/21 02:08:47;;;;;;;20.20;10.75;;;11.70;99.90;;;;;;4930841;29;20309;-31
2022/10/21 02:11:14;;;;;;;23.27;11.80;;;11.70;99.90;;;;;;4945903;29;20481;-31
2022/10/21 02:13:54;;;;;;;22.63;11.52;;;11.70;99.90;;;;;;4930002;29;20546;-30
2022/10/21 02:16:24;;;;;;;18.73;10.88;;;11.70;99.90;;;;;;4930830;29;20043;-30
2022/10/21 02:18:49;;;;;;;15.93;10.25;;;11.70;99.90;;;;;;4930281;29;20038;-30
2022/10/21 02:21:22;;;;;;;16.02;9.82;;;11.70;99.90;;;;;;4932043;29;20039;-30
2022/10/21 02:23:51;;;;;;;16.95;9.35;;;11.70;99.90;;;;;;4930639;29;20035;-30
2022/10/21 02:26:17;;;;;;;16.83;9.75;;;11.70;99.90;;;;;;4931775;29;20027;-30
2022/10/21 02:28:43;;;;;;;21.25;11.45;;;11.70;99.90;;;;;;4931792;29;20028;-30
2022/10/21 02:31:20;;;;;;;40.30;16.48;;;11.70;99.90;;;;;;4930729;28;20045;-31
2022/10/21 02:34:29;;;;;;;26.15;12.95;;;11.60;99.90;;;;;;4930139;29;20039;-32
2022/10/21 02:37:09;;;;;;;19.08;11.18;;;11.70;99.90;;;;;;4873608;29;20803;-30
2022/10/21 02:39:46;;;;;;;17.25;11.15;;;11.70;99.90;;;;;;4871435;29;20037;-31
2022/10/21 02:42:17;;;;;;;19.15;10.70;;;11.70;99.90;;;;;;4909033;29;20048;-31
2022/10/21 02:44:42;;;;;;;15.95;10.15;;;11.60;99.90;;;;;;4931050;29;20492;-30
2022/10/21 02:47:08;;;;;;;17.05;10.40;;;11.60;99.90;;;;;;4932118;29;20057;-29
2022/10/21 02:49:33;;;;;;;18.42;10.40;;;11.50;99.90;;;;;;4928482;29;20027;-32
2022/10/21 02:51:59;;;;;;;18.95;10.13;;;11.60;99.90;;;;;;4937234;29;20031;-31
2022/10/21 02:54:24;;;;;;;21.10;10.68;;;11.50;99.90;;;;;;4928434;28;20521;-30
2022/10/21 02:56:50;;;;;;;16.98;10.32;;;11.50;99.90;;;;;;4942643;28;20028;-30
2022/10/21 02:59:15;;;;;;;23.15;11.77;;;11.60;99.90;;;;;;4932168;29;20040;-30
2022/10/21 03:01:41;;;;;;;22.52;11.52;;;11.60;99.90;;;;;;4932813;28;20560;-32
2022/10/21 03:04:07;;;;;;;24.85;13.73;;;11.60;99.90;;;;;;4929037;29;20036;-32
2022/10/21 03:06:32;;;;;;;19.48;11.40;;;11.60;99.90;;;;;;4927866;29;20028;-31
2022/10/21 03:08:58;;;;;;;21.38;10.95;;;11.70;99.90;;;;;;4932186;29;20586;-33
2022/10/21 03:11:23;;;;;;;18.38;10.18;;;11.70;99.90;;;;;;4932570;29;20031;-30
2022/10/21 03:13:49;;;;;;;18.50;10.45;;;11.70;99.90;;;;;;4927884;29;20145;-34
2022/10/21 03:16:15;;;;;;;16.35;10.02;;;11.70;99.90;;;;;;4930880;29;20028;-30
2022/10/21 03:18:40;;;;;;;16.55;9.80;;;11.70;99.90;;;;;;4931122;29;20031;-30
2022/10/21 03:21:06;;;;;;;16.67;10.00;;;11.70;99.90;;;;;;4929836;29;20028;-30
2022/10/21 03:23:31;;;;;;;13.25;9.02;;;11.80;99.90;;;;;;4931906;29;20075;-32
2022/10/21 03:25:57;;;;;;;19.92;11.07;;;11.80;99.90;;;;;;4930226;29;20095;-34
2022/10/21 03:28:22;;;;;;;18.02;10.00;;;11.80;99.90;;;;;;4930219;29;20078;-30
2022/10/21 03:30:48;;;;;;;17.35;10.35;;;11.70;99.90;;;;;;4928193;29;20051;-30
2022/10/21 03:33:14;;;;;;;15.13;9.77;;;11.70;99.90;;;;;;4931355;29;20032;-29
2022/10/21 03:35:39;;;;;;;16.98;10.18;;;11.70;99.90;;;;;;4929169;29;20531;-30
2022/10/21 03:38:05;;;;;;;16.17;10.48;;;11.70;99.90;;;;;;4931114;29;20024;-30
2022/10/21 03:40:30;;;;;;;14.50;10.05;;;11.70;99.90;;;;;;4929007;29;20265;-30
2022/10/21 03:42:57;;;;;;;14.57;8.60;;;11.70;99.90;;;;;;4932005;29;20163;-32
2022/10/21 03:45:23;;;;;;;17.67;8.65;;;11.80;99.90;;;;;;4931454;29;20500;-30
2022/10/21 03:47:48;;;;;;;13.57;8.23;;;11.70;99.90;;;;;;4929365;29;20039;-30
2022/10/21 03:50:14;;;;;;;14.27;8.73;;;11.70;99.90;;;;;;4930256;29;20359;-32
2022/10/21 03:52:39;;;;;;;16.10;8.50;;;11.70;99.90;;;;;;4927226;29;20028;-30
2022/10/21 03:55:06;;;;;;;16.60;9.68;;;11.60;99.90;;;;;;4929844;29;20761;-30
2022/10/21 03:57:31;;;;;;;14.75;8.85;;;11.60;99.90;;;;;;4929678;29;20044;-30
2022/10/21 03:59:57;;;;;;;18.02;10.52;;;11.60;99.90;;;;;;4942602;28;20032;-29
2022/10/21 04:02:22;;;;;;;12.15;9.27;;;11.70;99.90;;;;;;4933630;28;20262;-31
2022/10/21 04:04:48;;;;;;;17.00;9.82;;;11.70;99.90;;;;;;4929075;29;20062;-34
2022/10/21 04:07:14;;;;;;;15.88;9.38;;;11.70;99.90;;;;;;4932099;29;20028;-30
2022/10/21 04:09:39;;;;;;;15.80;10.35;;;11.70;99.90;;;;;;4927451;29;20040;-30
2022/10/21 04:12:05;;;;;;;14.45;9.38;;;11.70;99.90;;;;;;4929410;29;20036;-30
2022/10/21 04:14:30;;;;;;;13.80;9.00;;;11.70;99.90;;;;;;4931583;29;20495;-29
2022/10/21 04:16:56;;;;;;;16.05;9.48;;;11.70;99.90;;;;;;4930223;29;20039;-30
2022/10/21 04:19:21;;;;;;;13.70;8.70;;;11.70;99.90;;;;;;4926882;29;20031;-30
2022/10/21 04:21:48;;;;;;;16.38;9.52;;;11.70;99.90;;;;;;4928078;29;20554;-30
2022/10/21 04:24:14;;;;;;;17.02;9.15;;;11.70;99.90;;;;;;4931424;29;20035;-32
2022/10/21 04:26:41;;;;;;;16.45;9.40;;;11.70;99.90;;;;;;4926657;29;20035;-32
2022/10/21 04:29:07;;;;;;;15.25;9.40;;;11.70;99.90;;;;;;4924426;29;20151;-30
2022/10/21 04:31:33;;;;;;;15.38;9.77;;;11.70;99.90;;;;;;4927923;28;20114;-30
2022/10/21 04:33:59;;;;;;;14.07;9.15;;;11.70;99.90;;;;;;4928571;29;20163;-30
2022/10/21 04:36:24;;;;;;;18.08;9.45;;;11.70;99.90;;;;;;4928163;29;20369;-31
2022/10/21 04:38:50;;;;;;;14.90;8.55;;;11.70;99.90;;;;;;4927045;29;20042;-31
2022/10/21 04:41:15;;;;;;;14.73;9.00;;;11.80;99.90;;;;;;4933344;29;20146;-30
2022/10/21 04:43:41;;;;;;;13.95;8.90;;;11.70;99.90;;;;;;4930074;29;20032;-29
2022/10/21 04:46:13;;;;;;;13.32;8.75;;;11.60;99.90;;;;;;4924634;29;20020;-31
2022/10/21 04:48:38;;;;;;;15.90;10.10;;;11.60;99.90;;;;;;4928061;29;20450;-31
2022/10/21 04:51:04;;;;;;;32.55;16.60;;;11.70;99.90;;;;;;4928320;29;20107;-31
2022/10/21 04:53:30;;;;;;;27.98;15.65;;;11.70;99.90;;;;;;4935864;29;20385;-30
2022/10/21 04:55:56;;;;;;;37.33;21.15;;;11.70;99.90;;;;;;4929672;29;20106;-30
2022/10/21 04:58:21;;;;;;;28.05;17.45;;;11.70;99.90;;;;;;4941926;28;20055;-30
2022/10/21 05:00:48;;;;;;;29.83;16.42;;;11.70;99.90;;;;;;4927665;29;20044;-36
2022/10/21 05:03:14;;;;;;;26.38;18.33;;;11.70;99.90;;;;;;4930854;29;20113;-31
2022/10/21 05:05:39;;;;;;;26.77;19.73;;;11.80;99.90;;;;;;4930276;29;20063;-30
2022/10/21 05:08:05;;;;;;;26.65;17.65;;;11.80;99.90;;;;;;4930520;29;20258;-31
2022/10/21 05:10:31;;;;;;;19.80;13.40;;;11.90;99.90;;;;;;4929625;29;20110;-30
2022/10/21 05:12:57;;;;;;;20.35;13.18;;;11.80;99.90;;;;;;4928796;29;20035;-32
2022/10/21 05:15:23;;;;;;;20.25;12.32;;;11.80;99.90;;;;;;4931067;29;20124;-34
2022/10/21 05:17:50;;;;;;;21.55;12.95;;;11.80;99.90;;;;;;4929820;29;20055;-30
2022/10/21 05:20:16;;;;;;;22.05;13.20;;;11.80;99.90;;;;;;4931143;29;20501;-31
2022/10/21 05:22:41;;;;;;;20.48;12.45;;;11.80;99.90;;;;;;4928542;29;20063;-30
2022/10/21 05:25:07;;;;;;;19.73;11.68;;;11.80;99.90;;;;;;4930738;29;20516;-31
2022/10/21 05:27:33;;;;;;;18.73;12.10;;;11.80;99.90;;;;;;4943615;28;20058;-30
2022/10/21 05:29:58;;;;;;;19.23;11.35;;;11.90;99.90;;;;;;4929024;29;20032;-30
2022/10/21 05:32:24;;;;;;;16.08;11.07;;;11.90;99.90;;;;;;4926618;28;20485;-31
2022/10/21 05:34:50;;;;;;;16.33;10.50;;;11.80;99.90;;;;;;4930053;29;20035;-30
2022/10/21 05:37:15;;;;;;;18.52;10.15;;;11.90;99.90;;;;;;4929025;29;20134;-31
2022/10/21 05:39:41;;;;;;;16.13;10.27;;;11.80;99.90;;;;;;4929659;29;20084;-33
2022/10/21 05:42:07;;;;;;;18.17;10.27;;;11.70;99.90;;;;;;4925952;29;20106;-30
2022/10/21 05:44:32;;;;;;;14.95;9.65;;;11.70;99.90;;;;;;4928726;29;20031;-30
2022/10/21 05:46:58;;;;;;;16.02;9.60;;;11.80;99.90;;;;;;4927629;29;20394;-36
2022/10/21 05:49:23;;;;;;;14.77;9.75;;;11.70;99.90;;;;;;4932561;29;20043;-30
2022/10/21 05:51:49;;;;;;;17.98;10.38;;;11.80;99.90;;;;;;4929987;29;20024;-31
2022/10/21 05:54:15;;;;;;;15.57;8.82;;;11.80;99.90;;;;;;4928550;29;20028;-30
2022/10/21 05:56:41;;;;;;;15.32;9.30;;;11.80;99.90;;;;;;4929406;29;20027;-30
2022/10/21 05:59:07;;;;;;;15.90;9.43;;;11.90;99.90;;;;;;4929280;29;20963;-30
2022/10/21 06:01:33;;;;;;;16.02;9.07;;;11.90;99.90;;;;;;4929782;29;20040;-30
2022/10/21 06:03:59;;;;;;;16.38;9.48;;;11.80;99.90;;;;;;4927190;29;20031;-30
2022/10/21 06:06:24;;;;;;;17.27;9.02;;;11.90;99.90;;;;;;4929522;29;20083;-30
2022/10/21 06:08:50;;;;;;;15.75;9.50;;;11.90;99.90;;;;;;4927440;29;20031;-32
2022/10/21 06:11:18;;;;;;;11.38;7.90;;;11.90;99.90;;;;;;4926034;29;20270;-32
2022/10/21 06:13:44;;;;;;;15.02;8.93;;;11.90;99.90;;;;;;4921864;29;20107;-29
2022/10/21 06:16:10;;;;;;;15.02;9.35;;;11.90;99.90;;;;;;4926466;29;20031;-30
2022/10/21 06:18:36;;;;;;;17.08;9.15;;;11.90;99.90;;;;;;4927311;29;20090;-33
2022/10/21 06:21:02;;;;;;;13.95;8.88;;;11.90;99.90;;;;;;4925145;29;20052;-31
2022/10/21 06:23:28;;;;;;;14.15;8.63;;;11.90;99.90;;;;;;4926913;29;20118;-30
2022/10/21 06:26:00;;;;;;;14.85;8.90;;;11.80;99.90;;;;;;4928149;29;20167;-34
2022/10/21 06:28:27;;;;;;;16.27;10.10;;;11.80;99.90;;;;;;4925932;29;20028;-30
2022/10/21 06:30:53;;;;;;;14.25;8.45;;;11.80;99.90;;;;;;4927927;28;20040;-30
2022/10/21 06:33:19;;;;;;;17.67;10.18;;;11.80;99.90;;;;;;4926994;29;20079;-30
2022/10/21 06:35:45;;;;;;;16.65;9.15;;;11.80;99.90;;;;;;4933451;29;20401;-31
2022/10/21 06:38:11;;;;;;;15.63;9.07;;;11.80;99.90;;;;;;4933062;29;20047;-30
2022/10/21 06:40:37;;;;;;;14.38;8.90;;;11.90;99.90;;;;;;4930763;29;20023;-30
2022/10/21 06:43:03;;;;;;;14.77;8.93;;;11.90;99.90;;;;;;4933785;29;20038;-32
2022/10/21 06:45:28;;;;;;;14.95;8.93;;;11.90;99.90;;;;;;4942892;28;20042;-30
2022/10/21 06:47:54;;;;;;;12.25;8.32;;;12.00;99.90;;;;;;4930553;29;20062;-30
2022/10/21 06:50:20;;;;;;;11.88;9.00;;;12.00;99.90;;;;;;4931139;29;20041;-29
2022/10/21 06:52:48;;;;;;;17.70;9.52;;;12.00;99.90;;;;;;4927945;29;20037;-33
2022/10/21 06:55:14;;;;;;;13.23;8.25;;;12.00;99.90;;;;;;4930869;29;20028;-30
2022/10/21 06:57:39;;;;;;;14.65;9.18;;;12.00;99.90;;;;;;4931719;29;20028;-31
2022/10/21 07:00:06;;;;;;;15.43;9.00;;;12.00;99.90;;;;;;4921277;29;20038;-34
2022/10/21 07:02:31;;;;;;;14.80;9.18;;;12.00;99.90;;;;;;4925803;28;20039;-31
2022/10/21 07:04:57;;;;;;;13.85;10.13;;;12.10;99.90;;;;;;4925567;29;20344;-34
2022/10/21 07:07:23;;;;;;;14.48;8.90;;;12.10;99.90;;;;;;4932476;29;20039;-31
2022/10/21 07:09:50;;;;;;;18.08;10.65;;;12.10;99.90;;;;;;4931037;29;20118;-31
2022/10/21 07:12:16;;;;;;;22.40;10.38;;;12.20;99.90;;;;;;4931752;29;20059;-33
2022/10/21 07:14:42;;;;;;;18.85;10.80;;;12.20;99.90;;;;;;4930732;29;20394;-31
2022/10/21 07:17:07;;;;;;;16.05;9.13;;;12.20;99.90;;;;;;4935340;29;20540;-31
2022/10/21 07:19:33;;;;;;;16.23;9.65;;;12.20;99.90;;;;;;4929332;29;20114;-30
2022/10/21 07:22:00;;;;;;;15.38;9.57;;;12.20;99.90;;;;;;4931414;29;20035;-32
2022/10/21 07:24:25;;;;;;;15.85;9.30;;;12.30;99.90;;;;;;4931775;29;20062;-31
2022/10/21 07:26:51;;;;;;;16.98;9.38;;;12.30;99.90;;;;;;4932594;29;20031;-34
2022/10/21 07:29:18;;;;;;;16.63;10.35;;;12.30;99.90;;;;;;4923927;29;20399;-31
2022/10/21 07:31:44;;;;;;;17.17;9.80;;;12.40;99.90;;;;;;4930332;28;20438;-32
2022/10/21 07:34:11;;;;;;;14.95;8.55;;;12.50;99.90;;;;;;4930684;29;20062;-32
2022/10/21 07:36:39;;;;;;;15.48;9.55;;;12.50;99.90;;;;;;4931926;29;20065;-33
2022/10/21 07:39:11;;;;;;;17.00;9.52;;;12.50;99.90;;;;;;4929642;28;20032;-30
2022/10/21 07:41:46;;;;;;;15.90;10.27;;;12.60;99.90;;;;;;4927766;29;20031;-30
2022/10/21 07:44:12;;;;;;;14.70;9.38;;;12.60;99.90;;;;;;4927717;29;20132;-30
2022/10/21 07:46:40;;;;;;;16.92;10.05;;;12.60;99.90;;;;;;4931273;29;20027;-35
2022/10/21 07:49:07;;;;;;;16.38;9.38;;;12.60;99.90;;;;;;4928685;29;20079;-35
2022/10/21 07:51:33;;;;;;;12.85;9.82;;;12.60;99.90;;;;;;4929145;29;20030;-30
2022/10/21 07:54:00;;;;;;;14.85;10.00;;;12.60;99.90;;;;;;4931620;29;20055;-31
2022/10/21 07:56:29;;;;;;;14.77;10.00;;;12.60;99.90;;;;;;4929062;29;20035;-33
2022/10/21 07:58:55;;;;;;;15.88;10.68;;;12.70;99.90;;;;;;4926982;29;20030;-32
2022/10/21 08:01:22;;;;;;;14.93;10.07;;;12.70;99.90;;;;;;4930144;28;20046;-30
2022/10/21 08:03:48;;;;;;;15.70;9.65;;;12.70;99.90;;;;;;4930382;29;20036;-31
2022/10/21 08:06:16;;;;;;;15.73;9.82;;;12.70;99.90;;;;;;4927719;29;20397;-35
2022/10/21 08:08:42;;;;;;;18.80;10.43;;;12.80;99.90;;;;;;4929903;29;20024;-30
2022/10/21 08:11:08;;;;;;;14.57;9.90;;;12.80;99.90;;;;;;4928770;29;20030;-32
2022/10/21 08:13:35;;;;;;;13.10;8.82;;;12.80;99.90;;;;;;4927604;28;20028;-30
2022/10/21 08:16:03;;;;;;;14.48;9.68;;;12.80;99.90;;;;;;4928157;29;20024;-32
2022/10/21 08:18:29;;;;;;;15.15;9.35;;;12.80;99.90;;;;;;4927901;29;20031;-31
2022/10/21 08:20:54;;;;;;;15.05;9.85;;;12.80;99.90;;;;;;4932018;29;20532;-31
2022/10/21 08:23:25;;;;;;;14.25;9.18;;;12.80;99.90;;;;;;4927821;29;20048;-30
2022/10/21 08:25:56;;;;;;;14.38;9.05;;;12.80;99.90;;;;;;4928057;29;20028;-31
2022/10/21 08:28:24;;;;;;;14.00;9.00;;;12.80;99.90;;;;;;4929967;29;20401;-33
2022/10/21 08:30:50;;;;;;;;;;;12.90;99.90;;;;;;4928837;29;20028;-34
2022/10/21 08:33:16;;;;;;;13.40;8.52;;;12.90;99.90;;;;;;4918633;29;20042;-34
2022/10/21 08:35:42;;;;;;;15.85;8.30;;;13.00;99.90;;;;;;4925037;29;20050;-34
2022/10/21 08:38:08;;;;;;;13.18;8.30;;;13.00;99.90;;;;;;4927940;29;20527;-31
2022/10/21 08:40:43;;;;;;;15.00;9.00;;;13.00;99.90;;;;;;4915555;29;20122;-34
2022/10/21 08:43:33;;;;;;;12.45;8.40;;;13.00;99.90;;;;;;4928727;29;20031;-32
2022/10/21 08:46:12;;;;;;;15.05;8.23;;;13.00;99.90;;;;;;4919247;29;20445;-31
2022/10/21 08:49:06;;;;;;;12.20;8.05;;;13.10;99.90;;;;;;4927033;29;20856;-30
2022/10/21 08:51:44;;;;;;;14.10;7.88;;;13.10;99.90;;;;;;4926323;29;20334;-33
2022/10/21 08:54:17;;;;;;;13.40;7.97;;;13.20;99.90;;;;;;4935867;29;20035;-30
2022/10/21 08:56:45;;;;;;;11.57;8.68;;;13.20;99.90;;;;;;4927941;29;20067;-29
2022/10/21 08:59:22;;;;;;;13.18;7.82;;;13.30;99.90;;;;;;4929048;29;20567;-30
2022/10/21 09:02:12;;;;;;;11.20;8.05;;;13.30;99.90;;;;;;4929461;28;20488;-35
2022/10/21 09:05:17;;;;;;;13.82;7.90;;;13.40;99.90;;;;;;4928819;29;20158;-30
2022/10/21 09:08:02;;;;;;;10.93;6.63;;;13.50;99.90;;;;;;4928960;29;20367;-31
2022/10/21 09:11:22;;;;;;;9.90;6.80;;;13.50;99.90;;;;;;4925932;29;20032;-30
2022/10/21 09:14:18;;;;;;;12.70;8.43;;;13.60;99.90;;;;;;4946667;28;20038;-32
2022/10/21 09:16:49;;;;;;;13.68;8.60;;;13.50;99.90;;;;;;4926585;29;20048;-32
2022/10/21 09:19:30;;;;;;;11.38;8.25;;;13.60;99.90;;;;;;4924716;29;20040;-31
2022/10/21 09:22:03;;;;;;;15.23;8.02;;;13.50;99.90;;;;;;4924392;29;20472;-34
2022/10/21 09:24:39;;;;;;;13.40;6.97;;;13.40;99.90;;;;;;4917150;29;20040;-34
2022/10/21 09:27:09;;;;;;;13.30;8.88;;;13.40;99.90;;;;;;4928474;29;20027;-31
2022/10/21 09:29:48;;;;;;;14.13;9.48;;;13.40;99.90;;;;;;4929899;29;20071;-35
2022/10/21 09:32:24;;;;;;;19.17;16.17;;;13.50;99.90;;;;;;4925464;28;20046;-33
2022/10/21 09:34:50;;;;;;;15.25;9.30;;;13.60;99.90;;;;;;4930122;29;20123;-31
2022/10/21 09:37:24;;;;;;;15.07;10.43;;;13.70;99.90;;;;;;4921228;29;20042;-33
2022/10/21 09:39:59;;;;;;;11.95;8.18;;;13.70;99.90;;;;;;4918499;29;20040;-33
2022/10/21 09:42:24;;;;;;;13.82;9.13;;;13.80;99.90;;;;;;4914195;29;21568;-34
2022/10/21 09:44:50;;;;;;;14.13;10.70;;;13.80;99.90;;;;;;4920923;29;20038;-32
2022/10/21 09:47:23;;;;;;;22.38;9.65;;;13.90;99.90;;;;;;4924290;29;20117;-33
2022/10/21 09:49:56;;;;;;;14.13;8.38;;;13.90;99.90;;;;;;4926354;29;20429;-31
2022/10/21 09:52:28;;;;;;;16.45;8.57;;;14.00;99.90;;;;;;4921692;29;20031;-34
2022/10/21 09:54:53;;;;;;;12.73;8.25;;;14.00;99.90;;;;;;4928812;29;20107;-31
2022/10/21 09:57:38;;;;;;;11.65;8.13;;;14.10;99.90;;;;;;4923991;29;20163;-33
2022/10/21 10:00:04;;;;;;;12.65;8.27;;;14.20;99.90;;;;;;4928055;29;20035;-30
2022/10/21 10:02:34;;;;;;;13.48;8.50;;;14.30;99.90;;;;;;4924471;29;20040;-32
2022/10/21 10:05:00;;;;;;;11.65;9.02;;;14.40;99.90;;;;;;4924326;29;20087;-30
2022/10/21 10:07:31;;;;;;;11.45;7.50;;;14.40;99.90;;;;;;4932318;29;20063;-30
2022/10/21 10:09:57;;;;;;;14.80;8.43;;;14.40;99.90;;;;;;4931079;29;20042;-32
2022/10/21 10:12:24;;;;;;;12.05;8.85;;;14.50;99.90;;;;;;4932739;29;20027;-34
2022/10/21 10:14:50;;;;;;;15.37;8.83;;;14.50;99.90;;;;;;4926327;29;20074;-32
2022/10/21 10:17:18;;;;;;;14.10;8.98;;;14.50;99.90;;;;;;4921125;29;20618;-34
2022/10/21 10:20:04;;;;;;;14.48;8.73;;;14.50;99.90;;;;;;4927781;29;20039;-31
2022/10/21 10:22:30;;;;;;;15.00;9.20;;;14.50;99.90;;;;;;4931210;29;20031;-30
2022/10/21 10:25:10;;;;;;;13.50;7.78;;;14.50;99.90;;;;;;4933989;29;20028;-31
2022/10/21 10:27:51;;;;;;;13.48;8.18;;;14.50;99.90;;;;;;4945554;29;20042;-33
2022/10/21 10:30:17;;;;;;;14.98;8.00;;;14.50;99.90;;;;;;4932016;29;20036;-31
2022/10/21 10:32:44;;;;;;;19.13;10.57;;;14.50;99.90;;;;;;4947411;28;20092;-32
2022/10/21 10:35:31;;;;;;;15.38;9.07;;;14.50;99.90;;;;;;4932820;29;20031;-32
2022/10/21 10:38:00;;;;;;;18.13;10.20;;;14.60;99.90;;;;;;4931060;29;20032;-32
2022/10/21 10:40:38;;;;;;;15.75;9.38;;;14.60;99.90;;;;;;4936255;29;20028;-32
2022/10/21 10:43:29;;;;;;;13.32;8.85;;;14.70;99.90;;;;;;4933272;29;20500;-32
2022/10/21 10:46:01;;;;;;;11.45;8.23;;;14.80;99.90;;;;;;4946943;28;20499;-31
2022/10/21 10:48:43;;;;;;;15.48;8.25;;;14.80;99.90;;;;;;4927580;29;20047;-31
2022/10/21 10:51:23;;;;;;;83.20;46.22;;;14.90;99.90;;;;;;4930168;29;20035;-30
2022/10/21 10:54:15;;;;;;;14.85;9.73;;;14.90;99.90;;;;;;4930288;29;20028;-30
2022/10/21 10:56:58;;;;;;;16.50;9.32;;;15.00;99.90;;;;;;4920666;29;20461;-31
2022/10/21 10:59:45;;;;;;;13.40;8.63;;;15.00;99.90;;;;;;4924994;29;20127;-31
2022/10/21 11:02:13;;;;;;;14.85;8.57;;;15.00;99.90;;;;;;4928552;28;20031;-31
2022/10/21 11:04:40;;;;;;;;;;;15.00;99.90;;;;;;4929819;29;20476;-30
2022/10/21 11:07:21;;;;;;;11.57;8.37;;;15.10;99.90;;;;;;4931178;29;19922;-34
2022/10/21 11:09:51;;;;;;;13.13;9.35;;;15.20;99.90;;;;;;4930157;29;20331;-31
2022/10/21 11:12:23;;;;;;;12.90;8.15;;;15.20;99.90;;;;;;4931128;29;20044;-35
2022/10/21 11:14:53;;;;;;;14.90;11.38;;;15.30;99.90;;;;;;4931419;29;20528;-30
2022/10/21 11:17:25;;;;;;;13.15;7.97;;;15.40;99.90;;;;;;4933258;29;20425;-31
2022/10/21 11:19:57;;;;;;;13.45;8.65;;;15.50;99.90;;;;;;4929037;29;20572;-36
2022/10/21 11:22:31;;;;;;;13.45;7.57;;;15.60;99.90;;;;;;4932071;29;20110;-34
2022/10/21 11:25:20;;;;;;;10.68;7.88;;;15.70;99.90;;;;;;4930438;29;20070;-31
2022/10/21 11:27:57;;;;;;;11.13;7.22;;;15.80;99.90;;;;;;4927732;29;20031;-31
2022/10/21 11:30:42;;;;;;;8.55;6.85;;;15.90;99.90;;;;;;4928993;29;20487;-30
2022/10/21 11:33:26;;;;;;;12.10;6.78;;;16.00;99.90;;;;;;4927031;29;20031;-30
2022/10/21 11:36:20;;;;;;;11.52;6.72;;;16.10;99.90;;;;;;4932202;29;20027;-31
2022/10/21 11:39:23;;;;;;;10.25;6.68;;;16.10;99.90;;;;;;4926023;29;20103;-30
2022/10/21 11:41:53;;;;;;;12.27;6.40;;;16.30;99.90;;;;;;4928545;29;20023;-31
2022/10/21 11:44:49;;;;;;;12.70;5.90;;;16.40;99.90;;;;;;4928253;29;20056;-35
2022/10/21 11:47:53;;;;;;;7.45;5.80;;;16.40;99.90;;;;;;4924571;29;20039;-35
2022/10/21 11:50:29;;;;;;;10.45;5.28;;;16.50;99.90;;;;;;4890947;29;21154;-31
2022/10/21 11:53:30;;;;;;;8.88;4.47;;;16.60;99.90;;;;;;4928151;29;20989;-36
2022/10/21 11:56:14;;;;;;;5.22;3.75;;;16.70;99.90;;;;;;4928635;29;20039;-35
2022/10/21 11:58:58;;;;;;;8.38;3.70;;;16.80;99.90;;;;;;4929374;29;20024;-31
2022/10/21 12:01:36;;;;;;;7.63;3.15;;;16.80;99.90;;;;;;4923942;28;20043;-33
2022/10/21 12:04:12;;;;;;;5.72;3.72;;;16.80;99.90;;;;;;4927643;29;20036;-31
2022/10/21 12:06:47;;;;;;;6.75;3.17;;;16.80;99.90;;;;;;4923997;29;20454;-30
2022/10/21 12:09:31;;;;;;;3.85;3.13;;;16.80;99.90;;;;;;4927002;29;20488;-31
2022/10/21 12:12:08;;;;;;;4.05;2.63;;;16.90;99.90;;;;;;4924605;29;20523;-36
2022/10/21 12:14:49;;;;;;;6.43;2.55;;;16.90;99.90;;;;;;4929039;29;20158;-32
2022/10/21 12:17:20;;;;;;;5.00;2.60;;;16.90;99.90;;;;;;4929123;29;20583;-29
2022/10/21 12:20:03;;;;;;;5.13;2.67;;;16.90;99.90;;;;;;4948917;28;20032;-30
2022/10/21 12:22:31;;;;;;;3.08;2.38;;;16.90;99.90;;;;;;4931932;29;20503;-33
2022/10/21 12:25:28;;;;;;;4.20;2.25;;;17.00;99.90;;;;;;4933359;29;20039;-33
2022/10/21 12:28:27;;;;;;;5.00;2.03;;;17.00;99.90;;;;;;4927622;29;20044;-32
2022/10/21 12:31:15;;;;;;;2.30;1.40;;;16.90;99.90;;;;;;4931155;28;20039;-31
2022/10/21 12:33:43;;;;;;;1.40;1.30;;;16.90;99.90;;;;;;4926442;29;20453;-32
2022/10/21 12:36:21;;;;;;;2.75;1.80;;;16.80;99.90;;;;;;4932608;29;20110;-29
2022/10/21 12:38:55;;;;;;;2.03;1.58;;;16.80;99.90;;;;;;4930642;29;20039;-30
2022/10/21 12:41:26;;;;;;;2.17;1.95;;;16.80;99.90;;;;;;4934416;29;20035;-32
2022/10/21 12:44:26;;;;;;;1.63;1.30;;;16.70;99.90;;;;;;4935452;29;20063;-30
2022/10/21 12:46:55;;;;;;;1.60;1.00;;;16.60;99.90;;;;;;4934873;29;20563;-30
2022/10/21 12:49:26;;;;;;;1.73;1.17;;;16.60;99.90;;;;;;4931671;29;20414;-29
2022/10/21 12:52:06;;;;;;;1.02;0.93;;;16.50;99.90;;;;;;4932247;29;20218;-30
2022/10/21 12:54:45;;;;;;;2.53;1.40;;;16.50;99.90;;;;;;4930867;29;20031;-29
2022/10/21 12:57:32;;;;;;;1.58;1.38;;;16.60;99.90;;;;;;4928713;29;20110;-30